Latest Weather Observations for Cape Leeuwin

IDW60801

Issued at 7:05 pm WST Friday 24 October 2014 (issued every 30 minutes, with the page automatically refreshed every 10 minutes)

About weather observations | Map of weather stations | Latest weather observations for WA | Other Formats
Station Details ID: 009518 Name: CAPE LEEUWIN Lat: -34.37 Lon: 115.14 Height: 13.0 m
Data from the previous 72 hours. | See also: Recent months at Cape Leeuwin
Date/Time
WST
Temp
°C
App
Temp
°C
Dew
Point
Rel
Hum
%
Delta-T
°C
Wind Press
QNH
hPa
Press
MSL
hPa
Rain
since 9 am
mm
Dir
 
Spd
km/h
Gust
km/h
Spd
kts
Gust
kts
24/07:00pm 18.3 16.3 13.9 75 2.5 NNW 17 20 9 11 1015.1 1015.1 0.0
24/06:30pm 18.9 15.6 14.0 73 2.8 NNW 24 28 13 15 1015.1 1015.1 0.0
24/06:00pm 18.9 15.2 13.8 72 2.9 NW 26 30 14 16 1015.2 1015.2 0.0
24/05:30pm 18.9 14.5 13.0 68 3.3 NW 28 32 15 17 1015.1 1015.1 0.0
24/05:00pm 19.6 15.5 13.7 68 3.4 NW 28 35 15 19 1015.1 1015.1 0.0
24/04:30pm 19.4 14.3 13.2 67 3.5 NW 32 35 17 19 1015.1 1015.1 0.0
24/04:00pm 19.3 14.5 12.9 66 3.6 NW 30 35 16 19 1015.2 1015.2 0.0
24/03:30pm 19.5 14.1 12.3 63 4.0 NW 32 35 17 19 1015.3 1015.3 0.0
24/03:00pm 20.1 15.2 12.4 61 4.3 NW 30 33 16 18 1015.2 1015.2 0.0
24/02:30pm 20.7 16.0 13.2 62 4.3 NW 30 35 16 19 1015.4 1015.4 0.0
24/02:00pm 20.0 15.3 13.3 65 3.8 WNW 30 33 16 18 1015.4 1015.4 0.0
24/01:30pm 19.9 15.5 12.8 63 4.0 WNW 28 32 15 17 1015.8 1015.8 0.0
24/01:00pm 21.1 19.3 13.2 60 4.5 W 15 20 8 11 1016.2 1016.2 0.0
24/12:30pm 19.4 17.2 12.0 62 4.1 WNW 15 19 8 10 1016.5 1016.5 0.0
24/12:00pm 19.6 17.8 12.0 61 4.2 WNW 13 17 7 9 1016.8 1016.8 0.0
24/11:30am 18.3 17.6 11.9 66 3.5 SSW 7 9 4 5 1017.2 1017.2 0.0
24/11:00am 18.4 16.6 12.1 66 3.5 E 13 17 7 9 1017.3 1017.3 0.0
24/10:30am 18.2 16.3 11.8 66 3.5 E 13 20 7 11 1017.7 1017.7 0.0
24/10:00am 18.6 16.3 11.7 64 3.8 NE 15 20 8 11 1017.9 1017.9 0.0
24/09:30am 17.9 14.9 11.9 68 3.3 NE 19 28 10 15 1018.0 1018.0 0.0
24/09:00am 17.1 13.0 11.4 69 3.1 NE 24 30 13 16 1017.8 1017.8 0.0
24/08:30am 16.6 13.0 11.8 73 2.6 NE 22 28 12 15 1017.9 1017.9 0.0
24/08:00am 16.2 13.2 11.8 75 2.4 NE 19 26 10 14 1018.1 1018.1 0.0
24/07:30am 15.4 12.1 11.7 78 2.0 ENE 20 28 11 15 1018.0 1018.0 0.0
24/07:00am 15.5 13.1 12.8 84 1.5 ENE 17 20 9 11 1017.7 1017.7 0.0
24/06:30am 14.2 11.6 12.0 87 1.2 NE 17 20 9 11 1017.7 1017.7 0.0
24/06:00am 14.4 12.2 12.0 85 1.3 NE 15 20 8 11 1017.7 1017.7 0.0
24/05:30am 14.0 11.7 11.8 86 1.2 NE 15 20 8 11 1017.9 1017.9 0.0
24/05:00am 14.3 12.4 11.9 85 1.3 NE 13 17 7 9 1017.5 1017.5 0.0
24/04:30am 14.6 13.5 12.0 84 1.4 NE 9 13 5 7 1017.6 1017.6 0.0
24/04:00am 14.9 13.3 11.5 80 1.8 NE 11 13 6 7 1017.8 1017.8 0.0
24/03:30am 15.6 12.6 9.4 66 3.2 SE 15 19 8 10 1017.9 1017.9 0.0
24/03:00am 15.6 13.0 9.4 66 3.2 SE 13 17 7 9 1018.2 1018.2 0.0
24/02:30am 15.4 13.6 9.4 67 3.1 S 9 15 5 8 1018.3 1018.3 0.0
24/02:00am 15.0 12.7 9.1 68 3.0 SSE 11 17 6 9 1018.2 1018.2 0.0
24/01:30am 15.3 12.7 9.5 68 3.0 S 13 15 7 8 1018.4 1018.4 0.0
24/01:00am 15.5 13.2 9.0 65 3.3 SSE 11 17 6 9 1018.5 1018.5 0.0
24/12:30am 15.7 12.8 9.5 66 3.2 S 15 20 8 11 1018.6 1018.6 0.0
24/12:00am 15.8 13.3 9.6 66 3.2 S 13 19 7 10 1018.5 1018.5 0.0
 
Date/Time
WST
Temp
°C
App
Temp
°C
Dew
Point
Rel
Hum
%
Delta-T
°C
Wind Press
QNH
hPa
Press
MSL
hPa
Rain
since 9 am
mm
Dir
 
Spd
km/h
Gust
km/h
Spd
kts
Gust
kts
23/11:30pm 15.8 13.1 10.3 70 2.9 SSE 15 20 8 11 1018.5 1018.5 0.0
23/11:00pm 15.8 12.9 10.9 72 2.6 SSE 17 22 9 12 1018.6 1018.6 0.0
23/10:30pm 15.7 12.4 11.0 73 2.5 S 19 24 10 13 1018.6 1018.6 0.0
23/10:00pm 15.9 12.7 11.2 73 2.5 S 19 22 10 12 1018.9 1018.9 0.0
23/09:30pm 16.0 12.9 11.5 74 2.4 S 19 24 10 13 1018.9 1018.9 0.0
23/09:00pm 15.9 12.9 11.8 76 2.2 S 19 26 10 14 1018.9 1018.9 0.0
23/08:30pm 15.8 12.4 12.5 81 1.8 SSW 22 30 12 16 1018.9 1018.9 0.0
23/08:00pm 15.9 12.5 12.6 81 1.8 S 22 30 12 16 1018.8 1018.8 0.0
23/07:30pm 15.6 11.6 13.1 85 1.4 S 26 30 14 16 1018.4 1018.4 0.0
23/07:00pm 15.6 11.0 13.4 87 1.2 SSW 30 37 16 20 1018.1 1018.1 0.0
23/06:30pm 15.7 12.0 13.9 89 1.0 SSW 26 33 14 18 1017.9 1017.9 0.0
23/06:00pm 16.1 11.4 14.2 88 1.1 SSW 32 41 17 22 1017.6 1017.6 0.0
23/05:30pm 16.4 13.6 14.3 87 1.2 S 22 32 12 17 1017.2 1017.2 0.0
23/05:00pm 17.7 13.7 14.2 80 2.0 SW 28 37 15 20 1017.0 1017.0 0.0
23/04:30pm 19.2 16.0 14.2 73 2.9 SSW 24 30 13 16 1016.9 1016.9 0.0
23/04:00pm 18.8 15.0 13.5 71 3.0 SW 26 30 14 16 1016.8 1016.8 0.0
23/03:30pm 18.7 15.4 14.0 74 2.7 SW 24 32 13 17 1016.5 1016.5 0.0
23/03:00pm 18.9 15.1 13.6 71 3.0 WSW 26 32 14 17 1016.6 1016.6 0.0
23/02:30pm 20.6 18.1 12.4 59 4.6 SSW 17 20 9 11 1016.4 1016.4 0.0
23/02:00pm 19.1 15.3 12.5 65 3.7 SW 24 30 13 16 1016.3 1016.3 0.0
23/01:30pm 20.7 16.4 11.9 57 4.9 SW 26 33 14 18 1016.2 1016.2 0.0
23/01:00pm 20.4 15.8 12.2 59 4.6 SW 28 35 15 19 1015.9 1015.9 0.0
23/12:30pm 20.2 15.5 12.1 59 4.5 SW 28 33 15 18 1015.8 1015.8 0.0
23/12:00pm 19.8 14.1 11.0 57 4.8 SW 32 37 17 20 1015.7 1015.7 0.0
23/11:30am 19.1 14.0 11.9 63 4.0 SW 30 37 16 20 1015.5 1015.5 0.0
23/11:00am 19.5 13.9 11.5 60 4.4 SW 32 39 17 21 1015.5 1015.5 0.0
23/10:30am 19.1 13.6 12.3 64 3.8 SW 33 41 18 22 1015.3 1015.3 0.0
23/10:00am 18.3 11.2 12.2 67 3.4 WSW 41 46 22 25 1015.0 1015.0 0.0
23/09:30am 17.7 10.6 12.3 70 3.0 WSW 41 46 22 25 1014.6 1014.6 0.0
23/09:00am 17.4 11.1 13.5 78 2.2 SW 39 48 21 26 1014.0 1014.0 0.0
23/08:30am 17.4 11.7 14.3 82 1.8 SW 37 48 20 26 1013.5 1013.5 0.0
23/08:00am 16.9 11.1 15.0 88 1.1 SW 39 48 21 26 1013.1 1013.1 0.0
23/07:30am 17.3 10.6 14.7 85 1.5 SW 43 52 23 28 1012.5 1012.5 0.0
23/07:00am 17.3 10.0 14.5 83 1.6 WSW 46 57 25 31 1011.9 1011.9 0.0
23/06:30am 17.3 11.6 15.1 87 1.3 WSW 39 48 21 26 1011.6 1011.6 0.0
23/06:00am 17.4 11.5 14.8 85 1.5 WSW 39 44 21 24 1011.1 1011.1 0.0
23/05:30am 17.5 11.9 15.5 88 1.2 WSW 39 44 21 24 1010.9 1010.9 0.0
23/05:23am 17.5 11.4 15.1 86 1.4 WSW 41 44 22 24 1010.8 1010.8 0.0
23/05:00am 17.6 11.1 15.0 85 1.5 WNW 43 50 23 27 1010.5 1010.5 0.0
23/04:30am 17.8 12.3 14.7 82 1.8 WNW 37 44 20 24 1010.5 1010.5 0.0
23/04:00am 17.6 11.4 14.8 84 1.6 WNW 41 46 22 25 1010.4 1010.4 0.0
23/03:30am 17.6 11.5 14.1 80 2.0 NW 39 46 21 25 1010.2 1010.2 0.0
23/03:00am 17.4 11.7 14.3 82 1.8 WNW 37 41 20 22 1010.1 1010.1 0.0
23/02:30am 17.6 11.6 14.5 82 1.8 NW 39 43 21 23 1010.1 1010.1 0.0
23/02:00am 17.7 12.1 14.4 81 1.9 WNW 37 43 20 23 1010.2 1010.2 0.0
23/01:30am 17.8 12.2 14.5 81 1.9 WNW 37 43 20 23 1010.5 1010.5 0.0
23/01:00am 17.8 13.0 14.7 82 1.8 NW 33 37 18 20 1010.6 1010.6 0.0
23/12:30am 17.7 14.2 14.4 81 1.9 NW 26 28 14 15 1010.6 1010.6 0.0
23/12:00am 17.9 14.1 14.6 81 1.9 WNW 28 32 15 17 1011.1 1011.1 0.0
 
Date/Time
WST
Temp
°C
App
Temp
°C
Dew
Point
Rel
Hum
%
Delta-T
°C
Wind Press
QNH
hPa
Press
MSL
hPa
Rain
since 9 am
mm
Dir
 
Spd
km/h
Gust
km/h
Spd
kts
Gust
kts
22/11:30pm 17.8 13.1 14.9 83 1.7 WNW 33 39 18 21 1011.5 1011.5 0.0
22/11:00pm 18.0 13.5 14.9 82 1.8 WNW 32 37 17 20 1011.8 1011.8 0.0
22/10:30pm 18.1 13.6 14.8 81 1.9 WNW 32 35 17 19 1011.9 1011.9 0.0
22/10:00pm 18.3 14.0 15.4 83 1.7 W 32 37 17 20 1012.1 1012.1 0.0
22/09:30pm 18.3 14.6 15.0 81 1.9 W 28 32 15 17 1011.8 1011.8 0.0
22/09:00pm 18.5 15.7 15.4 82 1.8 W 24 28 13 15 1011.8 1011.8 0.0
22/08:30pm 18.7 15.2 15.5 81 1.9 WNW 28 32 15 17 1011.8 1011.8 0.0
22/08:00pm 18.9 15.4 15.5 80 2.0 W 28 33 15 18 1011.7 1011.7 0.0
22/07:30pm 19.1 15.8 16.1 83 1.8 WNW 28 32 15 17 1011.5 1011.5 0.0
22/07:00pm 19.2 16.6 16.0 82 1.9 WNW 24 26 13 14 1011.1 1011.1 0.0
22/06:30pm 19.5 16.9 15.8 79 2.2 WNW 24 28 13 15 1010.7 1010.7 0.0
22/06:00pm 20.2 17.6 16.0 77 2.5 WNW 24 26 13 14 1010.6 1010.6 0.0
22/05:30pm 20.5 16.7 15.8 74 2.8 WNW 30 37 16 20 1010.0 1010.0 0.0
22/05:00pm 21.2 18.4 16.4 74 2.9 W 26 30 14 16 1009.5 1009.5 0.0
22/04:30pm 21.7 19.2 17.0 74 2.9 W 26 28 14 15 1009.4 1009.4 0.0
22/04:00pm 21.7 19.5 17.0 74 2.9 W 24 28 13 15 1009.2 1009.2 0.0
22/03:30pm 21.7 21.6 17.8 78 2.4 WNW 15 19 8 10 1009.8 1009.8 0.0
22/03:00pm 22.2 21.9 17.3 74 3.0 SW 15 19 8 10 1009.8 1009.8 0.0
22/02:30pm 22.3 22.3 17.3 73 3.1 WSW 13 15 7 8 1010.3 1010.3 0.0
22/02:00pm 22.8 23.2 16.4 67 3.9 SW 9 19 5 10 1010.6 1010.6 0.0
22/01:30pm 23.2 22.6 17.6 71 3.5 SE 17 20 9 11 1010.6 1010.6 0.0
22/01:00pm 22.7 22.6 17.0 70 3.5 E 13 17 7 9 1010.9 1010.9 0.0
22/12:30pm 23.0 20.0 16.8 68 3.8 ESE 28 33 15 18 1011.2 1011.2 0.0
22/12:00pm 22.3 19.1 16.4 69 3.6 E 28 32 15 17 1011.6 1011.6 0.0
22/11:30am 22.1 17.9 16.1 69 3.6 E 33 39 18 21 1012.4 1012.4 0.0
22/11:00am 21.8 19.0 16.3 71 3.3 ESE 26 30 14 16 1013.2 1013.2 0.0
22/10:30am 19.6 17.9 14.6 73 2.9 ESE 17 22 9 12 1014.5 1014.5 0.0
22/10:00am 19.6 16.2 13.7 68 3.4 ESE 24 28 13 15 1015.0 1015.0 0.0
22/09:30am 18.8 14.5 13.3 70 3.1 E 28 35 15 19 1015.7 1015.7 0.0
22/09:00am 17.3 10.7 12.6 74 2.6 E 39 44 21 24 1015.7 1015.7 0.0
22/08:30am 16.9 10.3 12.6 76 2.4 E 39 44 21 24 1016.0 1016.0 0.0
22/08:00am 16.0 8.3 12.0 77 2.2 E 44 52 24 28 1016.1 1016.1 0.0
22/07:30am 16.5 9.1 12.3 76 2.3 E 43 50 23 27 1016.2 1016.2 0.0
22/07:00am 16.0 8.4 11.8 76 2.3 E 43 50 23 27 1016.7 1016.7 0.0
22/06:30am 15.8 8.6 11.9 77 2.1 E 41 46 22 25 1016.9 1016.9 0.0
22/06:00am 15.0 8.0 11.2 78 2.0 E 39 46 21 25 1017.0 1017.0 0.0
22/05:30am 14.8 6.7 10.8 77 2.1 E 44 50 24 27 1016.9 1016.9 0.0
22/05:00am 14.7 6.9 11.1 79 1.9 E 43 50 23 27 1016.7 1016.7 0.0
22/04:30am 14.5 6.4 10.7 78 2.0 E 44 50 24 27 1016.9 1016.9 0.0
22/04:00am 14.5 6.3 10.5 77 2.1 E 44 50 24 27 1017.0 1017.0 0.0
22/03:30am 14.5 5.8 10.1 75 2.3 E 46 50 25 27 1017.1 1017.1 0.0
22/03:00am 14.3 5.2 9.8 74 2.3 E 48 56 26 30 1017.2 1017.2 0.0
22/02:30am 14.5 5.4 9.9 74 2.4 E 48 56 26 30 1017.7 1017.7 0.0
22/02:00am 14.7 5.9 9.7 72 2.6 E 46 54 25 29 1018.2 1018.2 0.0
22/01:30am 14.9 6.8 9.9 72 2.6 E 43 50 23 27 1018.8 1018.8 0.0
22/01:00am 14.8 6.3 9.3 69 2.8 E 44 52 24 28 1019.1 1019.1 0.0
22/12:30am 15.0 5.7 9.1 68 3.0 E 48 56 26 30 1019.4 1019.4 0.0
22/12:00am 15.5 6.4 8.6 63 3.5 E 46 57 25 31 1019.8 1019.8 0.0
 
Date/Time
WST
Temp
°C
App
Temp
°C
Dew
Point
Rel
Hum
%
Delta-T
°C
Wind Press
QNH
hPa
Press
MSL
hPa
Rain
since 9 am
mm
Dir
 
Spd
km/h
Gust
km/h
Spd
kts
Gust
kts
21/11:30pm 15.5 7.3 9.7 68 3.0 E 43 54 23 29 1020.4 1020.4 0.0
21/11:00pm 15.7 6.8 9.3 65 3.3 E 46 56 25 30 1020.2 1020.2 0.0
21/10:30pm 16.2 7.3 9.2 63 3.6 E 46 56 25 30 1020.7 1020.7 0.0
21/10:00pm 16.5 7.1 10.0 65 3.4 E 50 56 27 30 1020.8 1020.8 0.0
21/09:30pm 16.6 6.7 8.1 57 4.3 ESE 50 57 27 31 1021.4 1021.4 0.0
21/09:00pm 17.0 7.9 9.7 62 3.8 ESE 48 56 26 30 1021.6 1021.6 0.0
21/08:30pm 17.0 9.3 10.0 63 3.7 ESE 41 50 22 27 1022.0 1022.0 0.0
21/08:00pm 17.0 10.1 10.2 64 3.6 ESE 37 46 20 25 1022.1 1022.1 0.0
21/07:30pm 16.9 9.7 10.5 66 3.4 ESE 39 48 21 26 1021.7 1021.7 0.0

Other Formats:

Comma delimited format used in spreadsheet applications
http://www.bom.gov.au/fwo/IDW60801/IDW60801.94601.axf

JavaScript Object Notation format (JSON) in row-major order
http://www.bom.gov.au/fwo/IDW60801/IDW60801.94601.json